createdAt,value
2018-05-27T00:01:26.907Z,15.03
2018-05-27T00:03:55.382Z,14.13
2018-05-27T00:06:24.481Z,15.60
2018-05-27T00:08:52.807Z,18.20
2018-05-27T00:11:21.514Z,18.27
2018-05-27T00:13:49.885Z,13.40
2018-05-27T00:16:18.229Z,15.60
2018-05-27T00:18:46.574Z,18.50
2018-05-27T00:21:14.925Z,23.97
2018-05-27T00:23:43.262Z,16.80
2018-05-27T00:26:11.633Z,16.63
2018-05-27T00:28:39.970Z,21.43
2018-05-27T00:31:08.346Z,26.93
2018-05-27T00:33:37.152Z,24.50
2018-05-27T00:36:05.544Z,23.53
2018-05-27T00:38:33.886Z,18.83
2018-05-27T00:41:02.299Z,18.53
2018-05-27T00:43:31.389Z,13.90
2018-05-27T00:46:00.488Z,20.13
2018-05-27T00:48:28.849Z,19.73
2018-05-27T00:50:57.236Z,19.23
2018-05-27T00:53:43.689Z,19.30
2018-05-27T00:56:12.043Z,17.90
2018-05-27T00:58:40.390Z,20.83
2018-05-27T01:01:09.517Z,18.33
2018-05-27T01:03:37.885Z,28.40
2018-05-27T01:06:06.272Z,20.73
2018-05-27T01:08:34.613Z,27.03
2018-05-27T01:11:02.916Z,36.73
2018-05-27T01:13:31.264Z,24.03
2018-05-27T01:16:00.629Z,25.77
2018-05-27T01:18:28.985Z,33.53
2018-05-27T01:20:58.142Z,40.43
2018-05-27T01:23:27.333Z,32.60
2018-05-27T01:25:55.715Z,28.90
2018-05-27T01:28:24.071Z,31.13
2018-05-27T01:30:52.450Z,33.20
2018-05-27T01:33:20.785Z,35.53
2018-05-27T01:35:49.887Z,40.90
2018-05-27T01:38:19.221Z,30.63
2018-05-27T01:40:47.588Z,37.57
2018-05-27T01:43:15.946Z,40.03
2018-05-27T01:45:45.108Z,40.83
2018-05-27T01:48:13.483Z,44.00
2018-05-27T01:50:41.832Z,43.73
2018-05-27T01:53:10.199Z,45.47
2018-05-27T01:55:38.526Z,52.97
2018-05-27T01:58:06.899Z,49.33
2018-05-27T02:00:35.849Z,44.57
2018-05-27T02:03:04.172Z,47.27
2018-05-27T02:05:32.482Z,51.90
2018-05-27T02:08:01.612Z,54.10
2018-05-27T02:10:29.995Z,58.10
2018-05-27T02:12:58.357Z,61.10
2018-05-27T02:15:26.759Z,56.27
2018-05-27T02:17:55.117Z,55.37
2018-05-27T02:20:23.485Z,70.07
2018-05-27T02:22:52.137Z,71.47
2018-05-27T02:25:20.504Z,56.03
2018-05-27T02:27:48.857Z,61.60
2018-05-27T02:30:17.213Z,65.17
2018-05-27T02:32:45.687Z,62.37
2018-05-27T02:35:14.028Z,65.30
2018-05-27T02:37:42.410Z,71.77
2018-05-27T02:40:10.782Z,70.13
2018-05-27T02:42:39.108Z,77.30
2018-05-27T02:45:07.810Z,75.33
2018-05-27T02:47:36.160Z,63.13
2018-05-27T02:50:04.502Z,87.67
2018-05-27T02:52:33.680Z,69.00
2018-05-27T02:55:02.019Z,70.37
2018-05-27T02:57:30.375Z,77.60
2018-05-27T02:59:58.745Z,87.10
2018-05-27T03:02:27.878Z,79.77
2018-05-27T03:04:56.209Z,87.70
2018-05-27T03:07:24.968Z,73.97
2018-05-27T03:09:53.312Z,84.50
2018-05-27T03:12:21.667Z,80.70
2018-05-27T03:14:50.004Z,77.37
2018-05-27T03:17:18.406Z,87.13
2018-05-27T03:19:46.722Z,81.63
2018-05-27T03:22:15.823Z,72.43
2018-05-27T03:24:44.941Z,76.03
2018-05-27T03:27:13.292Z,72.87
2018-05-27T03:29:41.939Z,72.40
2018-05-27T03:32:10.256Z,77.53
2018-05-27T03:34:38.626Z,81.83
2018-05-27T03:37:07.012Z,69.60
2018-05-27T03:39:35.486Z,77.13
2018-05-27T03:42:03.863Z,71.23
2018-05-27T03:44:32.264Z,72.37
2018-05-27T03:47:01.446Z,76.40
2018-05-27T03:49:29.881Z,67.70
2018-05-27T03:51:58.505Z,72.67
2018-05-27T03:54:26.862Z,76.70
2018-05-27T03:56:55.220Z,83.33
2018-05-27T03:59:23.668Z,74.67
2018-05-27T04:01:52.843Z,74.00
2018-05-27T04:04:53.784Z,70.20
2018-05-27T04:07:39.839Z,66.20
2018-05-27T04:10:08.534Z,73.10
2018-05-27T04:12:36.946Z,71.23
2018-05-27T04:15:05.364Z,74.60
2018-05-27T04:17:33.801Z,66.80
2018-05-27T04:20:02.199Z,75.17
2018-05-27T04:22:31.376Z,69.50
2018-05-27T04:24:59.864Z,68.70
2018-05-27T04:27:28.260Z,90.07
2018-05-27T04:29:56.667Z,77.63
2018-05-27T04:32:36.164Z,74.97
2018-05-27T04:35:04.634Z,66.53
2018-05-27T04:37:32.979Z,65.47
2018-05-27T04:40:01.405Z,63.70
2018-05-27T04:42:29.802Z,68.23
2018-05-27T04:44:58.243Z,68.73
2018-05-27T04:47:26.653Z,65.23
2018-05-27T04:49:55.043Z,70.03
2018-05-27T04:52:23.448Z,80.70
2018-05-27T04:54:51.987Z,77.40
2018-05-27T04:57:20.372Z,70.67
2018-05-27T04:59:48.697Z,70.53
2018-05-27T05:02:17.069Z,63.67
2018-05-27T05:04:45.420Z,65.57
2018-05-27T05:07:14.572Z,64.27
2018-05-27T05:09:42.975Z,62.93
2018-05-27T05:12:11.360Z,68.13
2018-05-27T05:14:39.741Z,68.10
2018-05-27T05:17:08.195Z,64.63
2018-05-27T05:19:36.541Z,59.63
2018-05-27T05:22:04.965Z,67.60
2018-05-27T05:24:33.364Z,61.37
2018-05-27T05:27:02.564Z,56.50
2018-05-27T05:29:31.760Z,55.07
2018-05-27T05:32:00.189Z,51.77
2018-05-27T05:34:28.583Z,51.73
2018-05-27T05:36:56.977Z,47.00
2018-05-27T05:39:25.882Z,42.73
2018-05-27T05:41:54.485Z,46.83
2018-05-27T05:44:23.639Z,57.90
2018-05-27T05:46:52.072Z,56.40
2018-05-27T05:49:21.343Z,57.40
2018-05-27T05:51:49.758Z,56.03
2018-05-27T05:54:18.131Z,48.87
2018-05-27T05:56:47.411Z,51.97
2018-05-27T05:59:15.758Z,54.60
2018-05-27T06:01:44.251Z,41.60
2018-05-27T06:04:12.652Z,49.13
2018-05-27T06:06:41.034Z,40.27
2018-05-27T06:09:09.474Z,37.60
2018-05-27T06:11:37.914Z,39.43
2018-05-27T06:14:07.101Z,35.63
2018-05-27T06:16:36.369Z,34.40
2018-05-27T06:19:04.784Z,36.70
2018-05-27T06:21:33.139Z,35.40
2018-05-27T06:24:02.009Z,34.47
2018-05-27T06:26:30.467Z,34.53
2018-05-27T06:28:58.902Z,34.23
2018-05-27T06:31:27.382Z,38.40
2018-05-27T06:33:55.839Z,29.90
2018-05-27T06:36:24.220Z,44.30
2018-05-27T06:38:52.599Z,32.27
2018-05-27T06:41:21.028Z,32.43
2018-05-27T06:43:49.408Z,27.97
2018-05-27T06:46:18.713Z,25.43
2018-05-27T06:48:47.115Z,21.80
2018-05-27T06:51:15.526Z,29.87
2018-05-27T06:53:44.640Z,26.77
2018-05-27T06:56:13.006Z,28.20
2018-05-27T06:58:41.359Z,29.23
2018-05-27T07:01:09.737Z,27.50
2018-05-27T07:03:38.068Z,26.83
2018-05-27T07:06:06.382Z,24.20
2018-05-27T07:08:35.135Z,26.13
2018-05-27T07:11:03.525Z,25.43
2018-05-27T07:13:32.615Z,23.80
2018-05-27T07:16:01.754Z,32.23
2018-05-27T07:18:30.116Z,25.70
2018-05-27T07:20:58.463Z,23.27
2018-05-27T07:23:27.586Z,30.80
2018-05-27T07:25:55.936Z,23.87
2018-05-27T07:28:24.309Z,30.00
2018-05-27T07:30:53.127Z,20.20
2018-05-27T07:33:21.491Z,22.30
2018-05-27T07:35:49.873Z,18.77
2018-05-27T07:38:18.243Z,21.80
2018-05-27T07:40:46.628Z,20.53
2018-05-27T07:43:15.053Z,19.53
2018-05-27T07:45:43.411Z,32.20
2018-05-27T07:48:11.778Z,22.40
2018-05-27T07:50:40.911Z,19.97
2018-05-27T07:53:09.447Z,19.10
2018-05-27T07:55:37.802Z,18.60
2018-05-27T07:58:06.147Z,21.03
2018-05-27T08:00:34.497Z,19.27
2018-05-27T08:03:02.838Z,18.70
2018-05-27T08:05:31.186Z,17.73
2018-05-27T08:07:59.571Z,18.83
2018-05-27T08:10:27.901Z,22.20
2018-05-27T08:12:56.989Z,16.00
2018-05-27T08:15:26.569Z,16.53
2018-05-27T08:17:54.944Z,13.37
2018-05-27T08:20:23.252Z,14.10
2018-05-27T08:22:51.623Z,14.77
2018-05-27T08:25:19.980Z,12.53
2018-05-27T08:27:48.312Z,14.50
2018-05-27T08:30:16.669Z,13.20
2018-05-27T08:32:45.022Z,12.40
2018-05-27T08:35:13.439Z,11.07
2018-05-27T08:37:42.112Z,13.00
2018-05-27T08:40:10.452Z,26.27
2018-05-27T08:42:38.769Z,12.20
2018-05-27T08:45:07.164Z,10.87
2018-05-27T08:47:35.504Z,12.10
2018-05-27T08:50:03.835Z,13.40
2018-05-27T08:52:32.249Z,12.50
2018-05-27T08:55:00.553Z,12.10
2018-05-27T08:57:28.963Z,9.30
2018-05-27T08:59:58.324Z,10.33
2018-05-27T09:02:26.786Z,14.13
2018-05-27T09:04:55.213Z,11.90
2018-05-27T09:07:24.399Z,12.03
2018-05-27T09:09:52.778Z,12.73
2018-05-27T09:12:21.129Z,10.40
2018-05-27T09:14:50.268Z,10.80
2018-05-27T09:17:19.384Z,10.80
2018-05-27T09:19:47.811Z,17.30
2018-05-27T09:22:16.656Z,11.23
2018-05-27T09:24:44.984Z,9.67
2018-05-27T09:27:13.470Z,13.63
2018-05-27T09:29:41.884Z,8.60
2018-05-27T09:32:10.338Z,8.23
2018-05-27T09:34:38.709Z,9.77
2018-05-27T09:37:07.165Z,9.87
2018-05-27T09:39:36.302Z,8.07
2018-05-27T09:42:04.663Z,8.50
2018-05-27T09:44:33.365Z,8.40
2018-05-27T09:47:01.814Z,9.53
2018-05-27T09:49:30.239Z,8.87
2018-05-27T09:51:59.486Z,11.57
2018-05-27T09:54:27.873Z,9.83
2018-05-27T09:56:56.377Z,9.43
2018-05-27T09:59:24.807Z,8.50
2018-05-27T10:01:53.143Z,9.00
2018-05-27T10:04:21.504Z,15.60
2018-05-27T10:06:50.099Z,10.57
2018-05-27T10:09:18.652Z,7.73
2018-05-27T10:11:47.182Z,7.33
2018-05-27T10:14:15.581Z,7.63
2018-05-27T10:16:44.057Z,6.53
2018-05-27T10:19:13.354Z,7.57
2018-05-27T10:21:42.003Z,8.77
2018-05-27T10:24:10.504Z,9.63
2018-05-27T10:26:38.884Z,7.80
2018-05-27T10:29:07.371Z,8.70
2018-05-27T10:31:35.815Z,8.33
2018-05-27T10:34:04.253Z,7.30
2018-05-27T10:36:32.621Z,10.33
2018-05-27T10:39:01.828Z,7.73
2018-05-27T10:41:30.918Z,7.10
2018-05-27T10:43:59.319Z,7.63
2018-05-27T10:46:27.778Z,6.33
2018-05-27T10:48:56.912Z,7.20
2018-05-27T10:51:25.688Z,10.97
2018-05-27T10:53:54.099Z,7.77
2018-05-27T10:56:22.422Z,7.63
2018-05-27T10:58:51.540Z,6.90
2018-05-27T11:01:19.886Z,7.33
2018-05-27T11:03:48.197Z,6.97
2018-05-27T11:06:16.572Z,7.80
2018-05-27T11:08:44.903Z,4.73
2018-05-27T11:11:13.261Z,5.43
2018-05-27T11:13:42.109Z,5.00
2018-05-27T11:16:11.201Z,4.77
2018-05-27T11:18:40.408Z,4.87
2018-05-27T11:21:08.822Z,4.43
2018-05-27T11:23:37.213Z,4.60
2018-05-27T11:26:05.536Z,4.30
2018-05-27T11:28:34.714Z,4.90
2018-05-27T11:31:03.127Z,5.70
2018-05-27T11:33:32.220Z,5.40
2018-05-27T11:36:01.647Z,5.23
2018-05-27T11:38:29.966Z,4.40
2018-05-27T11:40:58.316Z,5.27
2018-05-27T11:43:26.679Z,3.77
2018-05-27T11:45:55.015Z,3.80
2018-05-27T11:48:23.359Z,3.90
2018-05-27T11:50:51.707Z,4.67
2018-05-27T11:53:20.111Z,4.30
2018-05-27T11:55:48.465Z,4.60
2018-05-27T11:58:17.095Z,4.80
2018-05-27T12:00:45.432Z,5.37
2018-05-27T12:03:13.795Z,4.63
2018-05-27T12:05:42.921Z,4.10
2018-05-27T12:08:11.231Z,4.47
2018-05-27T12:10:39.582Z,6.30
2018-05-27T12:13:07.938Z,4.27
2018-05-27T12:15:36.276Z,5.70
2018-05-27T12:18:04.649Z,5.13
2018-05-27T12:20:33.478Z,4.93
2018-05-27T12:23:01.875Z,3.43
2018-05-27T12:25:30.192Z,3.73
2018-05-27T12:27:58.564Z,6.73
2018-05-27T12:30:26.934Z,4.20
2018-05-27T12:32:55.267Z,4.13
2018-05-27T12:35:23.650Z,3.70
2018-05-27T12:37:52.779Z,4.67
2018-05-27T12:40:21.096Z,3.80
2018-05-27T12:42:49.550Z,4.20
2018-05-27T12:45:17.918Z,4.20
2018-05-27T12:47:46.334Z,7.20
2018-05-27T12:50:14.754Z,4.53
2018-05-27T12:52:43.084Z,4.40
2018-05-27T12:55:11.432Z,4.00
2018-05-27T12:57:39.787Z,4.07
2018-05-27T13:00:08.129Z,4.30
2018-05-27T13:02:36.454Z,5.17
2018-05-27T13:05:05.349Z,6.73
2018-05-27T13:07:33.702Z,4.83
2018-05-27T13:10:02.824Z,10.30
2018-05-27T13:12:31.899Z,5.23
2018-05-27T13:15:01.024Z,7.17
2018-05-27T13:17:29.392Z,4.30
2018-05-27T13:19:57.737Z,6.20
2018-05-27T13:22:26.815Z,5.97
2018-05-27T13:24:55.153Z,5.13
2018-05-27T13:27:23.898Z,4.20
2018-05-27T13:29:52.249Z,3.97
2018-05-27T13:32:20.620Z,4.37
2018-05-27T13:34:48.979Z,4.60
2018-05-27T13:37:17.365Z,4.57
2018-05-27T13:39:45.706Z,5.07
2018-05-27T13:42:14.063Z,4.90
2018-05-27T13:44:42.382Z,6.57
2018-05-27T13:47:10.764Z,5.03
2018-05-27T13:49:39.442Z,4.40
2018-05-27T13:52:07.788Z,4.30
2018-05-27T13:54:36.129Z,4.87
2018-05-27T13:57:04.490Z,5.60
2018-05-27T13:59:32.788Z,4.00
2018-05-27T14:02:01.149Z,4.63
2018-05-27T14:04:29.476Z,4.53
2018-05-27T14:06:57.821Z,5.63
2018-05-27T14:09:26.167Z,4.23
2018-05-27T14:11:54.686Z,5.40
2018-05-27T14:14:23.047Z,4.20
2018-05-27T14:16:51.376Z,6.50
2018-05-27T14:19:19.725Z,3.90
2018-05-27T14:21:48.088Z,3.90
2018-05-27T14:24:16.452Z,3.63
2018-05-27T14:26:45.553Z,3.43
2018-05-27T14:29:13.966Z,4.30
2018-05-27T14:31:42.368Z,4.10
2018-05-27T14:34:11.106Z,4.13
2018-05-27T14:36:39.443Z,6.33
2018-05-27T14:39:08.533Z,5.40
2018-05-27T14:41:36.933Z,3.90
2018-05-27T14:44:05.248Z,7.00
2018-05-27T14:46:33.639Z,5.73
2018-05-27T14:49:02.070Z,6.20
2018-05-27T14:51:30.397Z,6.27
2018-05-27T14:53:58.734Z,6.50
2018-05-27T14:56:27.151Z,6.83
2018-05-27T14:58:55.490Z,6.10
2018-05-27T15:01:24.576Z,6.00
2018-05-27T15:03:52.951Z,6.90
2018-05-27T15:06:22.075Z,7.10
2018-05-27T15:08:50.452Z,6.13
2018-05-27T15:11:18.794Z,5.63
2018-05-27T15:13:47.108Z,6.40
2018-05-27T15:16:15.457Z,12.53
2018-05-27T15:18:44.650Z,5.70
2018-05-27T15:21:13.007Z,6.77
2018-05-27T15:23:41.424Z,6.70
2018-05-27T15:26:10.534Z,7.03
2018-05-27T15:28:39.666Z,6.90
2018-05-27T15:31:08.018Z,7.70
2018-05-27T15:33:37.185Z,8.40
2018-05-27T15:36:06.303Z,16.20
2018-05-27T15:38:35.429Z,8.83
2018-05-27T15:41:03.907Z,8.30
2018-05-27T15:43:32.253Z,7.47
2018-05-27T15:46:00.601Z,7.80
2018-05-27T15:48:28.947Z,8.00
2018-05-27T15:50:57.272Z,9.17
2018-05-27T15:53:25.591Z,8.10
2018-05-27T15:55:53.927Z,8.00
2018-05-27T15:58:22.261Z,8.80
2018-05-27T16:00:51.364Z,8.70
2018-05-27T16:03:19.899Z,8.33
2018-05-27T16:05:48.237Z,7.97
2018-05-27T16:08:16.646Z,11.00
2018-05-27T16:10:45.055Z,11.17
2018-05-27T16:13:13.418Z,9.37
2018-05-27T16:15:42.510Z,10.50
2018-05-27T16:18:10.926Z,9.97
2018-05-27T16:20:39.256Z,8.47
2018-05-27T16:23:07.595Z,8.63
2018-05-27T16:25:36.247Z,9.30
2018-05-27T16:28:05.400Z,12.17
2018-05-27T16:30:33.724Z,12.73
2018-05-27T16:33:02.895Z,10.90
2018-05-27T16:35:31.280Z,10.37
2018-05-27T16:38:00.417Z,13.30
2018-05-27T16:40:28.786Z,9.90
2018-05-27T16:42:57.126Z,13.10
2018-05-27T16:45:26.252Z,9.30
2018-05-27T16:47:54.683Z,9.80
2018-05-27T16:50:23.041Z,10.43
2018-05-27T16:52:51.407Z,8.57
2018-05-27T16:55:19.790Z,9.80
2018-05-27T16:57:48.130Z,9.53
2018-05-27T17:00:16.583Z,9.73
2018-05-27T17:02:44.984Z,9.00
2018-05-27T17:05:14.126Z,9.40
2018-05-27T17:07:42.470Z,14.47
2018-05-27T17:10:11.355Z,9.57
2018-05-27T17:12:39.777Z,9.73
2018-05-27T17:15:08.136Z,10.07
2018-05-27T17:17:36.525Z,17.70
2018-05-27T17:20:04.872Z,8.60
2018-05-27T17:22:33.341Z,9.67
2018-05-27T17:25:01.893Z,9.00
2018-05-27T17:27:30.290Z,11.00
2018-05-27T17:29:58.641Z,10.03
2018-05-27T17:32:27.119Z,9.63
2018-05-27T17:34:55.443Z,10.10
2018-05-27T17:37:23.888Z,10.03
2018-05-27T17:39:52.343Z,11.23
2018-05-27T17:42:20.660Z,11.23
2018-05-27T17:44:49.044Z,10.83
2018-05-27T17:47:17.428Z,11.17
2018-05-27T17:49:45.791Z,10.57
2018-05-27T17:52:14.100Z,8.97
2018-05-27T17:54:42.859Z,10.90
2018-05-27T17:57:11.181Z,10.60
2018-05-27T17:59:40.303Z,9.97
2018-05-27T18:02:08.697Z,10.70
2018-05-27T18:04:37.617Z,9.67
2018-05-27T18:07:06.130Z,10.10
2018-05-27T18:09:34.541Z,9.50
2018-05-27T18:12:02.864Z,11.43
2018-05-27T18:14:32.064Z,10.83
2018-05-27T18:17:01.014Z,13.57
2018-05-27T18:19:29.364Z,10.60
2018-05-27T18:21:58.561Z,10.93
2018-05-27T18:24:27.114Z,10.00
2018-05-27T18:26:55.457Z,10.07
2018-05-27T18:29:23.823Z,10.40
2018-05-27T18:31:52.294Z,10.00
2018-05-27T18:34:20.723Z,12.90
2018-05-27T18:36:49.073Z,10.40
2018-05-27T18:39:17.511Z,10.23
2018-05-27T18:41:46.652Z,9.97
2018-05-27T18:44:15.049Z,15.47
2018-05-27T18:46:43.561Z,9.90
2018-05-27T18:49:11.984Z,11.13
2018-05-27T18:51:40.420Z,10.40
2018-05-27T18:54:08.780Z,10.43
2018-05-27T18:56:37.088Z,14.77
2018-05-27T18:59:05.525Z,11.23
2018-05-27T19:01:34.740Z,10.03
2018-05-27T19:04:03.052Z,10.67
2018-05-27T19:06:32.178Z,11.87
2018-05-27T19:09:00.714Z,11.13
2018-05-27T19:11:29.067Z,9.87
2018-05-27T19:13:57.476Z,11.97
2018-05-27T19:16:25.922Z,10.00
2018-05-27T19:18:54.244Z,14.63
2018-05-27T19:21:22.641Z,10.53
2018-05-27T19:23:51.870Z,19.77
2018-05-27T19:26:20.216Z,16.07
2018-05-27T19:28:49.332Z,10.73
2018-05-27T19:31:17.692Z,10.70
2018-05-27T19:33:46.037Z,12.10
2018-05-27T19:36:15.144Z,12.17
2018-05-27T19:38:43.511Z,11.87
2018-05-27T19:41:11.904Z,12.90
2018-05-27T19:43:40.384Z,11.40
2018-05-27T19:46:08.847Z,16.67
2018-05-27T19:48:37.216Z,11.17
2018-05-27T19:51:05.588Z,11.50
2018-05-27T19:53:33.981Z,11.00
2018-05-27T19:56:02.356Z,11.53
2018-05-27T19:58:30.730Z,12.50
2018-05-27T20:00:59.139Z,14.70
2018-05-27T20:03:27.496Z,11.80
2018-05-27T20:08:55.607Z,11.60
2018-05-27T20:11:24.245Z,12.00
2018-05-27T20:13:52.621Z,12.50
2018-05-27T20:16:20.958Z,12.47
2018-05-27T20:18:50.295Z,12.30
2018-05-27T20:21:18.634Z,11.40
2018-05-27T20:23:47.011Z,14.30
2018-05-27T20:26:15.836Z,20.97
2018-05-27T20:28:44.185Z,11.40
2018-05-27T20:31:12.726Z,12.07
2018-05-27T20:33:41.162Z,13.63
2018-05-27T20:36:09.513Z,12.77
2018-05-27T20:38:37.837Z,12.13
2018-05-27T20:41:06.999Z,17.60
2018-05-27T20:43:35.339Z,12.03
2018-05-27T20:46:03.722Z,12.57
2018-05-27T20:48:32.579Z,10.77
2018-05-27T20:51:00.923Z,11.10
2018-05-27T20:53:29.307Z,11.53
2018-05-27T20:55:57.720Z,10.77
2018-05-27T20:58:26.057Z,11.70
2018-05-27T21:00:54.412Z,12.63
2018-05-27T21:03:22.777Z,12.37
2018-05-27T21:05:51.136Z,11.23
2018-05-27T21:08:19.471Z,10.57
2018-05-27T21:10:47.941Z,10.47
2018-05-27T21:13:16.381Z,11.13
2018-05-27T21:15:44.805Z,12.00
2018-05-27T21:18:13.159Z,10.00
2018-05-27T21:20:41.539Z,10.83
2018-05-27T21:23:09.878Z,9.60
2018-05-27T21:25:38.244Z,8.77
2018-05-27T21:28:07.376Z,8.07
2018-05-27T21:30:35.759Z,8.50
2018-05-27T21:33:04.320Z,7.60
2018-05-27T21:35:33.429Z,20.03
2018-05-27T21:38:01.767Z,10.57
2018-05-27T21:40:30.118Z,7.27
2018-05-27T21:42:58.516Z,6.63
2018-05-27T21:45:27.001Z,7.37
2018-05-27T21:47:55.416Z,6.97
2018-05-27T21:50:24.509Z,7.00
2018-05-27T21:52:53.594Z,6.70
2018-05-27T21:55:23.015Z,10.33
2018-05-27T21:57:51.382Z,6.17
2018-05-27T22:00:19.781Z,6.07
2018-05-27T22:02:48.139Z,5.90
2018-05-27T22:05:17.255Z,6.43
2018-05-27T22:07:45.576Z,5.80
2018-05-27T22:10:13.975Z,16.00
2018-05-27T22:12:42.308Z,9.23
2018-05-27T22:15:10.664Z,7.40
2018-05-27T22:17:40.159Z,5.90
2018-05-27T22:20:09.369Z,6.33
2018-05-27T22:22:37.757Z,5.70
2018-05-27T22:25:06.292Z,5.93
2018-05-27T22:27:34.650Z,6.17
2018-05-27T22:30:03.245Z,10.03
2018-05-27T22:32:31.710Z,6.47
2018-05-27T22:35:00.303Z,6.33
2018-05-27T22:37:28.716Z,6.20
2018-05-27T22:40:04.735Z,6.33
2018-05-27T22:42:33.089Z,5.93
2018-05-27T22:45:01.804Z,5.90
2018-05-27T22:47:30.302Z,6.17
2018-05-27T22:49:58.843Z,6.57
2018-05-27T22:52:27.297Z,5.80
2018-05-27T22:54:56.489Z,6.67
2018-05-27T22:57:25.696Z,6.83
2018-05-27T22:59:54.072Z,6.43
2018-05-27T23:02:23.277Z,7.33
2018-05-27T23:04:51.940Z,7.10
2018-05-27T23:07:20.434Z,7.33
2018-05-27T23:09:48.864Z,6.37
2018-05-27T23:12:17.296Z,7.10
2018-05-27T23:14:46.471Z,6.20
2018-05-27T23:17:14.841Z,6.63
2018-05-27T23:19:43.344Z,9.23
2018-05-27T23:22:11.838Z,7.27
2018-05-27T23:24:41.159Z,7.40
2018-05-27T23:27:10.313Z,6.80
2018-05-27T23:29:38.718Z,6.57
2018-05-27T23:32:07.873Z,7.30
2018-05-27T23:34:36.198Z,6.83
2018-05-27T23:37:05.327Z,8.10
2018-05-27T23:39:33.773Z,7.77
2018-05-27T23:42:02.171Z,7.23
2018-05-27T23:44:30.572Z,7.40
2018-05-27T23:46:59.227Z,10.03
2018-05-27T23:49:27.563Z,8.20
2018-05-27T23:51:55.921Z,8.80
2018-05-27T23:54:24.286Z,7.73
2018-05-27T23:56:52.616Z,9.03
2018-05-27T23:59:20.993Z,8.17
